Time;durP1;ratioP1;P1;durP2;ratioP2;P2;SDS_P1;SDS_P2;PMS_P1;PMS_P2;Temp;Humidity;BMP_temperature;BMP_pressure;BME280_temperature;BME280_humidity;BME280_pressure;Samples;Min_cycle;Max_cycle;Signal;HPM_P1;HPM_P2
2023/06/26 00:00:21;;;;;;;11.40;8.45;;;;;;;;;;5149019;27;20510;-74
2023/06/26 00:02:47;;;;;;;11.10;7.80;;;;;;;;;;5115300;27;20035;-75
2023/06/26 00:05:13;;;;;;;10.68;7.35;;;;;;;;;;5136487;27;20046;-75
2023/06/26 00:07:40;;;;;;;13.98;7.82;;;;;;;;;;5152685;27;20426;-74
2023/06/26 00:10:06;;;;;;;11.50;7.53;;;;;;;;;;5132174;27;20118;-75
2023/06/26 00:12:33;;;;;;;10.80;8.32;;;;;;;;;;5151892;27;20046;-75
2023/06/26 00:14:59;;;;;;;10.65;8.10;;;;;;;;;;5135232;27;20133;-74
2023/06/26 00:17:26;;;;;;;11.15;8.25;;;;;;;;;;5115684;27;20491;-74
2023/06/26 00:19:52;;;;;;;11.05;8.38;;;;;;;;;;5136377;27;20046;-74
2023/06/26 00:22:18;;;;;;;11.98;8.73;;;;;;;;;;5136934;27;20347;-74
2023/06/26 00:24:45;;;;;;;12.35;8.20;;;;;;;;;;5153878;27;20046;-74
2023/06/26 00:27:11;;;;;;;10.32;8.35;;;;;;;;;;5140748;27;20043;-74
2023/06/26 00:29:38;;;;;;;11.80;8.45;;;;;;;;;;5153349;27;20092;-74
2023/06/26 00:32:05;;;;;;;11.45;9.35;;;;;;;;;;5153836;27;20035;-74
2023/06/26 00:34:31;;;;;;;9.88;8.32;;;;;;;;;;5135763;27;20058;-74
2023/06/26 00:36:57;;;;;;;10.15;7.53;;;;;;;;;;5135230;27;20579;-74
2023/06/26 00:39:25;;;;;;;12.35;8.57;;;;;;;;;;5141575;27;20055;-74
2023/06/26 00:41:54;;;;;;;10.65;8.23;;;;;;;;;;5134419;27;20402;-74
2023/06/26 00:44:20;;;;;;;11.40;7.40;;;;;;;;;;5151990;27;20053;-74
2023/06/26 00:46:46;;;;;;;11.00;8.63;;;;;;;;;;5135748;27;20528;-74
2023/06/26 00:49:13;;;;;;;12.30;8.20;;;;;;;;;;5129891;27;20111;-74
2023/06/26 00:51:39;;;;;;;9.93;8.15;;;;;;;;;;5137005;27;20035;-74
2023/06/26 00:54:05;;;;;;;12.52;7.70;;;;;;;;;;5129606;27;20118;-74
2023/06/26 00:56:32;;;;;;;10.00;8.85;;;;;;;;;;5143897;27;20517;-74
2023/06/26 00:58:58;;;;;;;10.85;8.25;;;;;;;;;;5117869;27;20039;-74
2023/06/26 01:01:25;;;;;;;10.85;7.97;;;;;;;;;;5133895;27;20053;-74
2023/06/26 01:03:52;;;;;;;12.25;8.02;;;;;;;;;;5132352;27;21763;-74
2023/06/26 01:06:19;;;;;;;18.35;9.07;;;;;;;;;;5132938;27;20198;-74
2023/06/26 01:08:46;;;;;;;10.57;8.52;;;;;;;;;;5134561;27;20573;-74
2023/06/26 01:11:13;;;;;;;12.32;9.15;;;;;;;;;;5144488;27;20095;-74
2023/06/26 01:13:40;;;;;;;12.05;9.40;;;;;;;;;;5113249;27;20039;-74
2023/06/26 01:16:06;;;;;;;11.15;8.57;;;;;;;;;;5147927;27;20034;-74
2023/06/26 01:18:33;;;;;;;11.48;8.70;;;;;;;;;;5122581;27;20054;-75
2023/06/26 01:21:01;;;;;;;12.25;8.00;;;;;;;;;;5152272;27;20045;-74
2023/06/26 01:23:32;;;;;;;14.63;9.10;;;;;;;;;;5112567;27;20043;-74
2023/06/26 01:26:17;;;;;;;11.68;9.23;;;;;;;;;;5124373;27;20046;-74
2023/06/26 01:28:43;;;;;;;10.75;8.32;;;;;;;;;;5152626;27;20051;-75
2023/06/26 01:31:11;;;;;;;10.80;9.25;;;;;;;;;;5152971;27;20137;-74
2023/06/26 01:33:37;;;;;;;11.18;8.88;;;;;;;;;;5132759;27;20038;-74
2023/06/26 01:36:04;;;;;;;11.50;9.02;;;;;;;;;;5132774;27;20073;-74
2023/06/26 01:38:30;;;;;;;10.88;8.98;;;;;;;;;;5139442;27;20062;-74
2023/06/26 01:40:56;;;;;;;13.20;9.77;;;;;;;;;;5146112;27;20035;-74
2023/06/26 01:43:32;;;;;;;22.73;9.13;;;;;;;;;;5135285;27;20043;-74
2023/06/26 01:46:10;;;;;;;12.75;10.15;;;;;;;;;;5151876;27;20386;-74
2023/06/26 01:48:45;;;;;;;10.93;9.07;;;;;;;;;;5141086;27;20257;-74
2023/06/26 01:51:13;;;;;;;13.10;10.70;;;;;;;;;;5141020;27;20027;-74
2023/06/26 01:53:42;;;;;;;13.32;10.55;;;;;;;;;;5148588;27;20469;-74
2023/06/26 01:56:12;;;;;;;15.10;9.82;;;;;;;;;;5112763;27;20058;-74
2023/06/26 01:58:40;;;;;;;16.80;10.80;;;;;;;;;;5120720;27;20483;-74
2023/06/26 02:01:06;;;;;;;13.57;11.00;;;;;;;;;;5118693;27;20047;-74
2023/06/26 02:03:33;;;;;;;14.93;11.02;;;;;;;;;;5147610;27;20030;-74
2023/06/26 02:05:59;;;;;;;12.98;10.13;;;;;;;;;;5143401;27;20043;-74
2023/06/26 02:08:25;;;;;;;15.35;11.32;;;;;;;;;;5130846;27;20037;-74
2023/06/26 02:10:52;;;;;;;13.57;10.23;;;;;;;;;;5125539;27;20101;-74
2023/06/26 02:13:18;;;;;;;12.10;9.95;;;;;;;;;;5153009;27;20054;-73
2023/06/26 02:15:44;;;;;;;12.32;10.43;;;;;;;;;;5119870;27;20549;-74
2023/06/26 02:18:10;;;;;;;12.90;10.45;;;;;;;;;;5131986;27;20043;-74
2023/06/26 02:20:36;;;;;;;13.57;10.88;;;;;;;;;;5134847;27;20054;-74
2023/06/26 02:23:06;;;;;;;13.48;11.00;;;;;;;;;;5144575;27;20455;-74
2023/06/26 02:25:32;;;;;;;14.07;11.18;;;;;;;;;;5128546;27;20053;-74
2023/06/26 02:27:58;;;;;;;14.45;10.80;;;;;;;;;;5144032;27;20076;-74
2023/06/26 02:30:24;;;;;;;14.20;11.57;;;;;;;;;;5133808;27;20478;-74
2023/06/26 02:32:50;;;;;;;14.73;11.68;;;;;;;;;;5138097;27;20087;-74
2023/06/26 02:35:17;;;;;;;14.65;11.30;;;;;;;;;;5138170;27;20050;-74
2023/06/26 02:37:43;;;;;;;15.77;11.15;;;;;;;;;;5138071;27;20038;-75
2023/06/26 02:40:10;;;;;;;15.30;12.10;;;;;;;;;;5156916;27;20474;-74
2023/06/26 02:42:36;;;;;;;15.25;12.57;;;;;;;;;;5136731;27;20049;-74
2023/06/26 02:45:02;;;;;;;12.48;11.00;;;;;;;;;;5155540;27;20046;-74
2023/06/26 02:47:28;;;;;;;14.93;11.85;;;;;;;;;;5138084;27;20515;-74
2023/06/26 02:49:54;;;;;;;16.52;12.07;;;;;;;;;;5103049;27;20122;-74
2023/06/26 02:52:21;;;;;;;15.85;12.10;;;;;;;;;;5146395;27;20129;-74
2023/06/26 02:54:47;;;;;;;15.70;12.15;;;;;;;;;;5157006;27;20035;-74
2023/06/26 02:57:14;;;;;;;15.73;13.02;;;;;;;;;;5127744;27;20038;-74
2023/06/26 02:59:40;;;;;;;15.52;12.43;;;;;;;;;;5130057;27;20385;-74
2023/06/26 03:02:06;;;;;;;14.50;10.82;;;;;;;;;;5155604;27;20042;-74
2023/06/26 03:04:36;;;;;;;15.48;12.30;;;;;;;;;;5137043;27;20052;-74
2023/06/26 03:07:02;;;;;;;15.75;12.10;;;;;;;;;;5122298;27;20051;-74
2023/06/26 03:09:29;;;;;;;12.45;10.75;;;;;;;;;;5137726;27;20050;-74
2023/06/26 03:11:55;;;;;;;14.23;11.27;;;;;;;;;;5142310;27;20492;-74
2023/06/26 03:14:21;;;;;;;14.25;10.77;;;;;;;;;;5137647;27;20093;-74
2023/06/26 03:16:49;;;;;;;23.55;10.90;;;;;;;;;;5137622;27;20046;-74
2023/06/26 03:19:15;;;;;;;13.15;9.52;;;;;;;;;;5154712;27;20054;-74
2023/06/26 03:21:41;;;;;;;14.05;9.50;;;;;;;;;;5127942;27;20039;-74
2023/06/26 03:24:07;;;;;;;15.07;9.48;;;;;;;;;;5137169;27;20058;-74
2023/06/26 03:26:33;;;;;;;14.02;8.90;;;;;;;;;;5138520;27;20081;-74
2023/06/26 03:29:00;;;;;;;15.43;9.55;;;;;;;;;;5134221;27;20482;-74
2023/06/26 03:31:26;;;;;;;15.75;9.52;;;;;;;;;;5136517;27;20119;-74
2023/06/26 03:33:52;;;;;;;18.33;10.07;;;;;;;;;;5134900;27;20126;-74
2023/06/26 03:36:18;;;;;;;14.45;10.18;;;;;;;;;;5135432;27;20176;-74
2023/06/26 03:38:44;;;;;;;16.30;10.00;;;;;;;;;;5130880;27;20047;-74
2023/06/26 03:41:11;;;;;;;16.55;9.70;;;;;;;;;;5145670;27;20073;-74
2023/06/26 03:43:37;;;;;;;21.30;10.90;;;;;;;;;;5136970;27;20042;-74
2023/06/26 03:46:03;;;;;;;18.48;10.25;;;;;;;;;;5155591;27;20118;-74
2023/06/26 03:48:29;;;;;;;20.88;10.73;;;;;;;;;;5154824;27;20501;-73
2023/06/26 03:50:56;;;;;;;19.10;10.05;;;;;;;;;;5154537;27;20043;-74
2023/06/26 03:53:22;;;;;;;17.88;10.63;;;;;;;;;;5132782;27;20066;-74
2023/06/26 03:55:48;;;;;;;17.30;9.73;;;;;;;;;;5134748;27;20138;-73
2023/06/26 03:58:14;;;;;;;19.27;10.32;;;;;;;;;;5140851;27;20045;-74
2023/06/26 04:00:40;;;;;;;22.35;11.88;;;;;;;;;;5136236;27;20070;-73
2023/06/26 04:03:06;;;;;;;27.50;12.80;;;;;;;;;;5153370;27;20039;-73
2023/06/26 04:05:33;;;;;;;70.90;16.05;;;;;;;;;;5136952;27;20039;-68
2023/06/26 04:07:59;;;;;;;34.05;14.68;;;;;;;;;;5146834;27;20043;-71
2023/06/26 04:10:25;;;;;;;26.17;14.65;;;;;;;;;;5145569;27;20402;-71
2023/06/26 04:12:51;;;;;;;24.08;14.30;;;;;;;;;;5140091;27;20104;-71
2023/06/26 04:15:17;;;;;;;34.67;15.48;;;;;;;;;;5130303;27;20046;-71
2023/06/26 04:17:44;;;;;;;26.45;15.35;;;;;;;;;;5130515;27;20042;-71
2023/06/26 04:20:10;;;;;;;29.20;14.07;;;;;;;;;;5124702;27;20058;-71
2023/06/26 04:22:36;;;;;;;26.00;14.57;;;;;;;;;;5122667;27;20037;-71
2023/06/26 04:25:04;;;;;;;21.67;14.50;;;;;;;;;;5126146;27;20041;-72
2023/06/26 04:27:30;;;;;;;24.48;13.75;;;;;;;;;;5124490;27;20055;-72
2023/06/26 04:29:56;;;;;;;25.60;14.18;;;;;;;;;;5117676;27;20043;-72
2023/06/26 04:32:23;;;;;;;22.75;13.80;;;;;;;;;;5117052;27;20047;-71
2023/06/26 04:34:49;;;;;;;22.48;13.65;;;;;;;;;;5139535;27;20083;-71
2023/06/26 04:37:17;;;;;;;24.48;11.90;;;;;;;;;;5133286;27;20031;-71
2023/06/26 04:39:43;;;;;;;19.23;10.48;;;;;;;;;;5133650;27;20376;-71
2023/06/26 04:42:11;;;;;;;25.15;11.60;;;;;;;;;;5115007;27;20126;-72
2023/06/26 04:44:38;;;;;;;26.00;10.82;;;;;;;;;;5134905;27;20047;-72
2023/06/26 04:47:04;;;;;;;22.08;9.30;;;;;;;;;;5115227;27;20092;-72
2023/06/26 04:49:31;;;;;;;20.02;8.98;;;;;;;;;;5122746;27;20486;-71
2023/06/26 04:52:00;;;;;;;18.13;8.80;;;;;;;;;;5116706;27;20047;-71
2023/06/26 04:54:27;;;;;;;18.65;8.27;;;;;;;;;;5135678;27;20043;-71
2023/06/26 04:56:53;;;;;;;22.83;8.32;;;;;;;;;;5131624;27;20045;-72
2023/06/26 04:59:19;;;;;;;24.75;8.38;;;;;;;;;;5116851;27;20043;-72
2023/06/26 05:01:47;;;;;;;20.58;6.65;;;;;;;;;;5151504;27;20125;-71
2023/06/26 05:04:15;;;;;;;18.20;6.80;;;;;;;;;;5153264;27;20122;-71
2023/06/26 05:06:41;;;;;;;21.58;6.60;;;;;;;;;;5145763;27;20422;-72
2023/06/26 05:09:07;;;;;;;21.88;6.28;;;;;;;;;;5123783;27;20087;-72
2023/06/26 05:11:34;;;;;;;19.42;6.07;;;;;;;;;;5134699;27;20050;-72
2023/06/26 05:14:00;;;;;;;24.30;6.68;;;;;;;;;;5135595;27;20374;-72
2023/06/26 05:16:26;;;;;;;21.50;5.38;;;;;;;;;;5152953;27;20355;-71
2023/06/26 05:18:54;;;;;;;20.25;5.20;;;;;;;;;;5137710;27;20110;-72
2023/06/26 05:21:20;;;;;;;23.95;6.82;;;;;;;;;;5125405;27;20065;-71
2023/06/26 05:23:47;;;;;;;23.60;5.30;;;;;;;;;;5121724;27;20054;-70
2023/06/26 05:26:13;;;;;;;18.60;5.55;;;;;;;;;;5116538;27;20039;-72
2023/06/26 05:28:40;;;;;;;16.08;5.53;;;;;;;;;;5121111;27;20047;-71
2023/06/26 05:31:06;;;;;;;15.75;4.97;;;;;;;;;;5126820;27;20138;-71
2023/06/26 05:33:35;;;;;;;17.83;4.72;;;;;;;;;;5122801;27;20514;-67
2023/06/26 05:36:04;;;;;;;15.27;5.05;;;;;;;;;;5127582;27;20155;-75
2023/06/26 05:38:30;;;;;;;15.40;4.72;;;;;;;;;;5123275;27;20093;-75
2023/06/26 05:40:57;;;;;;;14.85;4.93;;;;;;;;;;5129774;27;20050;-75
2023/06/26 05:43:23;;;;;;;16.80;4.70;;;;;;;;;;5129714;27;20179;-75
2023/06/26 05:45:49;;;;;;;15.88;4.38;;;;;;;;;;5123184;27;20367;-75
2023/06/26 05:48:15;;;;;;;17.35;4.28;;;;;;;;;;5130469;27;20058;-75
2023/06/26 05:50:43;;;;;;;22.13;4.97;;;;;;;;;;5129407;28;20049;-75
2023/06/26 05:53:10;;;;;;;16.50;5.40;;;;;;;;;;5132120;28;20039;-76
2023/06/26 05:55:36;;;;;;;22.70;4.80;;;;;;;;;;5116746;28;20433;-76
2023/06/26 05:58:05;;;;;;;15.10;4.05;;;;;;;;;;5117038;28;20114;-73
2023/06/26 06:00:31;;;;;;;16.52;5.32;;;;;;;;;;5127457;28;20109;-72
2023/06/26 06:02:57;;;;;;;11.75;3.58;;;;;;;;;;5123678;27;20145;-72
2023/06/26 06:05:24;;;;;;;15.82;4.25;;;;;;;;;;5131109;28;20403;-69
2023/06/26 06:07:50;;;;;;;12.60;3.80;;;;;;;;;;5126798;27;20031;-71
2023/06/26 06:10:17;;;;;;;16.60;3.58;;;;;;;;;;5117135;27;20043;-71
2023/06/26 06:12:43;;;;;;;16.85;3.30;;;;;;;;;;5133361;27;20512;-71
2023/06/26 06:15:09;;;;;;;13.15;3.95;;;;;;;;;;5134398;27;20054;-70
2023/06/26 06:17:35;;;;;;;13.05;3.28;;;;;;;;;;5125878;27;20153;-70
2023/06/26 06:20:01;;;;;;;12.93;3.22;;;;;;;;;;5136610;27;20074;-78
2023/06/26 06:22:28;;;;;;;9.50;2.75;;;;;;;;;;5133123;27;20035;-70
2023/06/26 06:24:54;;;;;;;12.68;3.13;;;;;;;;;;5118836;27;20046;-70
2023/06/26 06:27:20;;;;;;;12.70;2.60;;;;;;;;;;5134599;27;20054;-71
2023/06/26 06:29:46;;;;;;;8.60;2.65;;;;;;;;;;5124850;27;20086;-70
2023/06/26 06:32:13;;;;;;;9.27;2.63;;;;;;;;;;5124928;27;20078;-69
2023/06/26 06:34:39;;;;;;;10.82;2.47;;;;;;;;;;5157131;27;20401;-74
2023/06/26 06:37:05;;;;;;;14.18;2.40;;;;;;;;;;5134709;27;20152;-74
2023/06/26 06:39:31;;;;;;;10.15;2.83;;;;;;;;;;5137033;27;20051;-73
2023/06/26 06:41:57;;;;;;;11.07;2.63;;;;;;;;;;5144942;27;20122;-74
2023/06/26 06:44:24;;;;;;;10.73;2.60;;;;;;;;;;5137756;27;20054;-73
2023/06/26 06:46:50;;;;;;;10.18;2.72;;;;;;;;;;5127103;27;20167;-74
2023/06/26 06:49:16;;;;;;;9.00;2.88;;;;;;;;;;5133688;27;20122;-74
2023/06/26 06:51:42;;;;;;;6.93;2.20;;;;;;;;;;5111732;27;20516;-74
2023/06/26 06:54:09;;;;;;;11.70;2.30;;;;;;;;;;5120931;27;20453;-74
2023/06/26 06:56:35;;;;;;;10.00;2.63;;;;;;;;;;5134322;27;20050;-74
2023/06/26 06:59:01;;;;;;;8.38;2.13;;;;;;;;;;5125881;27;20106;-74
2023/06/26 07:01:28;;;;;;;10.23;2.75;;;;;;;;;;5124281;27;20035;-74
2023/06/26 07:03:54;;;;;;;11.85;2.42;;;;;;;;;;5127883;27;20039;-74
2023/06/26 07:06:20;;;;;;;10.40;2.25;;;;;;;;;;5130488;27;20095;-74
2023/06/26 07:08:46;;;;;;;8.80;2.00;;;;;;;;;;5156215;27;20030;-74
2023/06/26 07:11:12;;;;;;;8.00;1.88;;;;;;;;;;5136394;27;20047;-74
2023/06/26 07:13:39;;;;;;;6.70;2.22;;;;;;;;;;5126398;27;20445;-74
2023/06/26 07:16:05;;;;;;;6.95;1.92;;;;;;;;;;5133033;27;20166;-74
2023/06/26 07:18:31;;;;;;;6.85;2.38;;;;;;;;;;5135732;27;20043;-74
2023/06/26 07:20:57;;;;;;;7.03;2.45;;;;;;;;;;5127364;27;20165;-74
2023/06/26 07:23:24;;;;;;;11.65;3.03;;;;;;;;;;5131567;27;20179;-74
2023/06/26 07:25:50;;;;;;;9.00;2.08;;;;;;;;;;5150815;27;20551;-74
2023/06/26 07:28:16;;;;;;;7.55;2.30;;;;;;;;;;5126401;27;20458;-74
2023/06/26 07:30:42;;;;;;;11.93;2.10;;;;;;;;;;5130029;27;20111;-74
2023/06/26 07:33:08;;;;;;;9.40;2.17;;;;;;;;;;5130323;27;20039;-74
2023/06/26 07:35:34;;;;;;;8.98;2.03;;;;;;;;;;5152997;27;20050;-74
2023/06/26 07:38:01;;;;;;;7.38;2.33;;;;;;;;;;5127950;27;20047;-74
2023/06/26 07:40:27;;;;;;;7.03;2.00;;;;;;;;;;5128381;27;20085;-74
2023/06/26 07:42:54;;;;;;;11.05;2.20;;;;;;;;;;5126633;27;20099;-74
2023/06/26 07:45:23;;;;;;;9.23;2.13;;;;;;;;;;5126945;27;20054;-73
2023/06/26 07:47:49;;;;;;;8.50;2.28;;;;;;;;;;5142166;27;20035;-74
2023/06/26 07:50:22;;;;;;;8.00;2.70;;;;;;;;;;5144982;27;20042;-73
2023/06/26 07:52:49;;;;;;;7.70;2.17;;;;;;;;;;5154641;27;20047;-73
2023/06/26 07:55:15;;;;;;;8.45;2.50;;;;;;;;;;5136888;27;20046;-74
2023/06/26 07:57:41;;;;;;;9.45;2.40;;;;;;;;;;5124565;27;20519;-73
2023/06/26 08:00:07;;;;;;;14.50;2.33;;;;;;;;;;5146614;27;20039;-74
2023/06/26 08:02:34;;;;;;;6.13;2.10;;;;;;;;;;5121589;27;20092;-73
2023/06/26 08:05:00;;;;;;;8.27;2.53;;;;;;;;;;5151152;27;20137;-73
2023/06/26 08:07:26;;;;;;;6.15;1.88;;;;;;;;;;5146179;27;20054;-73
2023/06/26 08:09:52;;;;;;;7.57;2.70;;;;;;;;;;5146683;27;20042;-73
2023/06/26 08:12:18;;;;;;;9.38;2.67;;;;;;;;;;5145260;27;20120;-73
2023/06/26 08:14:45;;;;;;;6.93;2.00;;;;;;;;;;5120718;27;20050;-73
2023/06/26 08:17:11;;;;;;;9.32;2.28;;;;;;;;;;5123580;27;20371;-73
2023/06/26 08:19:37;;;;;;;9.38;2.63;;;;;;;;;;5133132;27;20046;-73
2023/06/26 08:22:03;;;;;;;8.90;2.60;;;;;;;;;;5149240;27;20060;-73
2023/06/26 08:24:29;;;;;;;11.73;3.17;;;;;;;;;;5143796;27;20035;-73
2023/06/26 08:26:56;;;;;;;11.80;2.67;;;;;;;;;;5110531;27;20054;-73
2023/06/26 08:29:22;;;;;;;7.65;2.28;;;;;;;;;;5153870;27;20081;-73
2023/06/26 08:31:48;;;;;;;6.32;1.90;;;;;;;;;;5122286;27;20441;-73
2023/06/26 08:34:14;;;;;;;7.80;2.17;;;;;;;;;;5119545;27;20035;-73
2023/06/26 08:36:40;;;;;;;5.07;2.20;;;;;;;;;;5147912;27;20049;-73
2023/06/26 08:39:08;;;;;;;8.45;2.28;;;;;;;;;;5130309;27;20177;-73
2023/06/26 08:41:36;;;;;;;7.97;2.50;;;;;;;;;;5145665;27;20043;-73
2023/06/26 08:44:03;;;;;;;11.10;3.22;;;;;;;;;;5136645;27;20095;-68
2023/06/26 08:46:29;;;;;;;7.07;3.00;;;;;;;;;;5125905;27;20092;-76
2023/06/26 08:48:56;;;;;;;12.90;3.35;;;;;;;;;;5103317;27;20043;-67
2023/06/26 08:51:25;;;;;;;9.57;3.60;;;;;;;;;;5144335;27;20047;-67
2023/06/26 08:53:51;;;;;;;8.07;3.42;;;;;;;;;;5122931;27;20081;-67
2023/06/26 08:56:20;;;;;;;8.50;2.97;;;;;;;;;;5122122;27;20038;-80
2023/06/26 08:58:46;;;;;;;9.23;3.15;;;;;;;;;;5138707;27;20058;-69
2023/06/26 09:01:13;;;;;;;10.40;3.97;;;;;;;;;;5144204;27;20031;-70
2023/06/26 09:03:41;;;;;;;7.20;3.40;;;;;;;;;;5121930;27;20209;-71
2023/06/26 09:06:07;;;;;;;8.40;3.25;;;;;;;;;;5117704;27;20039;-71
2023/06/26 09:08:34;;;;;;;5.82;2.33;;;;;;;;;;5121609;27;20039;-71
2023/06/26 09:11:00;;;;;;;10.90;3.13;;;;;;;;;;5138242;27;20164;-69
2023/06/26 09:13:26;;;;;;;9.45;2.97;;;;;;;;;;5114901;27;20359;-69
2023/06/26 09:15:55;;;;;;;8.00;2.83;;;;;;;;;;5132898;27;20043;-71
2023/06/26 09:18:21;;;;;;;9.10;2.97;;;;;;;;;;5114304;27;20113;-70
2023/06/26 09:20:48;;;;;;;8.77;3.25;;;;;;;;;;5114498;27;20509;-70
2023/06/26 09:23:14;;;;;;;10.70;3.65;;;;;;;;;;5115817;27;20057;-70
2023/06/26 09:25:41;;;;;;;8.45;3.03;;;;;;;;;;5117774;27;20043;-70
2023/06/26 09:28:10;;;;;;;7.85;3.58;;;;;;;;;;5140462;27;20051;-70
2023/06/26 09:30:37;;;;;;;7.60;3.00;;;;;;;;;;5138565;27;20051;-70
2023/06/26 09:33:15;;;;;;;5.47;2.67;;;;;;;;;;5102499;27;20046;-70
2023/06/26 09:35:41;;;;;;;8.50;3.40;;;;;;;;;;5144037;27;20046;-70
2023/06/26 09:38:08;;;;;;;8.57;3.20;;;;;;;;;;5114991;27;20039;-70
2023/06/26 09:40:38;;;;;;;5.85;2.83;;;;;;;;;;5099839;27;20491;-70
2023/06/26 09:43:13;;;;;;;9.15;4.28;;;;;;;;;;5116677;27;20051;-70
2023/06/26 09:45:40;;;;;;;6.13;3.08;;;;;;;;;;5140296;27;20062;-70
2023/06/26 09:48:11;;;;;;;11.48;3.47;;;;;;;;;;5098057;27;20078;-71
2023/06/26 09:50:39;;;;;;;14.05;4.10;;;;;;;;;;5125087;27;20051;-71
2023/06/26 09:53:09;;;;;;;7.20;3.10;;;;;;;;;;5116848;27;20049;-71
2023/06/26 09:55:36;;;;;;;8.45;3.30;;;;;;;;;;5141342;27;20125;-71
2023/06/26 09:58:03;;;;;;;9.70;3.55;;;;;;;;;;5128839;27;20047;-71
2023/06/26 10:00:30;;;;;;;9.23;2.75;;;;;;;;;;5150090;27;20047;-71
2023/06/26 10:02:57;;;;;;;8.48;2.78;;;;;;;;;;5126818;27;20042;-73
2023/06/26 10:05:23;;;;;;;8.77;2.60;;;;;;;;;;5142180;27;20039;-72
2023/06/26 10:07:49;;;;;;;6.38;2.53;;;;;;;;;;5140277;27;20073;-71
2023/06/26 10:10:16;;;;;;;5.60;2.45;;;;;;;;;;5143433;27;20038;-72
2023/06/26 10:12:43;;;;;;;5.38;2.72;;;;;;;;;;5119522;27;20532;-72
2023/06/26 10:15:13;;;;;;;9.52;2.67;;;;;;;;;;5116463;27;20431;-72
2023/06/26 10:17:42;;;;;;;7.88;1.92;;;;;;;;;;5118826;28;20047;-71
2023/06/26 10:20:09;;;;;;;4.78;1.88;;;;;;;;;;5140088;27;20549;-73
2023/06/26 10:22:42;;;;;;;10.80;2.28;;;;;;;;;;5132831;27;20092;-72
2023/06/26 10:25:10;;;;;;;5.82;2.20;;;;;;;;;;5111893;27;20076;-73
2023/06/26 10:27:38;;;;;;;6.03;1.67;;;;;;;;;;5143090;27;20110;-74
2023/06/26 10:30:06;;;;;;;7.10;1.88;;;;;;;;;;5138457;27;20557;-72
2023/06/26 10:32:33;;;;;;;6.80;1.83;;;;;;;;;;5136543;27;20427;-72
2023/06/26 10:35:02;;;;;;;7.95;2.22;;;;;;;;;;5130901;27;20051;-72
2023/06/26 10:37:48;;;;;;;9.52;2.15;;;;;;;;;;5137135;27;20118;-72
2023/06/26 10:40:15;;;;;;;6.32;1.85;;;;;;;;;;5114778;27;20047;-77
2023/06/26 10:42:41;;;;;;;6.68;1.80;;;;;;;;;;5096271;27;20050;-77
2023/06/26 10:45:17;;;;;;;6.63;1.77;;;;;;;;;;5115675;27;20379;-78
2023/06/26 10:47:46;;;;;;;11.45;1.67;;;;;;;;;;5118701;28;20053;-77
2023/06/26 10:50:26;;;;;;;7.35;1.85;;;;;;;;;;5122998;27;20453;-78
2023/06/26 10:53:09;;;;;;;5.50;1.63;;;;;;;;;;5119303;27;20058;-77
2023/06/26 10:55:35;;;;;;;8.07;1.60;;;;;;;;;;5114679;27;20574;-77
2023/06/26 10:58:02;;;;;;;8.55;1.60;;;;;;;;;;5117881;27;20047;-77
2023/06/26 11:00:29;;;;;;;6.47;1.77;;;;;;;;;;5149422;27;20042;-78
2023/06/26 11:02:55;;;;;;;9.27;1.85;;;;;;;;;;5127738;27;20054;-77
2023/06/26 11:05:25;;;;;;;9.60;2.13;;;;;;;;;;5133203;27;20050;-77
2023/06/26 11:08:05;;;;;;;8.00;1.88;;;;;;;;;;5135431;27;20054;-78
2023/06/26 11:10:49;;;;;;;9.23;2.10;;;;;;;;;;5127159;27;20039;-78
2023/06/26 11:13:16;;;;;;;6.70;1.48;;;;;;;;;;5132847;27;20042;-77
2023/06/26 11:15:44;;;;;;;8.80;2.00;;;;;;;;;;5152981;27;20042;-78
2023/06/26 11:18:11;;;;;;;10.00;2.20;;;;;;;;;;5149878;27;20118;-78
2023/06/26 11:20:37;;;;;;;13.25;2.25;;;;;;;;;;5129575;27;20518;-77
2023/06/26 11:23:07;;;;;;;12.85;2.25;;;;;;;;;;5153283;27;20047;-78
2023/06/26 11:25:37;;;;;;;15.60;2.60;;;;;;;;;;5154215;27;20507;-78
2023/06/26 11:28:04;;;;;;;10.20;2.95;;;;;;;;;;5127100;27;20050;-78
2023/06/26 11:30:30;;;;;;;7.15;1.60;;;;;;;;;;5136878;27;20066;-78
2023/06/26 11:33:07;;;;;;;8.23;2.30;;;;;;;;;;5136783;27;20057;-78
2023/06/26 11:35:33;;;;;;;8.02;1.55;;;;;;;;;;5154763;27;20463;-78
2023/06/26 11:38:03;;;;;;;10.02;2.20;;;;;;;;;;5136659;27;20045;-78
2023/06/26 11:40:33;;;;;;;7.13;2.00;;;;;;;;;;5137452;27;20077;-78
2023/06/26 11:43:00;;;;;;;11.00;2.72;;;;;;;;;;5137277;27;20111;-79
2023/06/26 11:45:29;;;;;;;13.00;2.40;;;;;;;;;;5153184;27;20043;-78
2023/06/26 11:47:56;;;;;;;9.70;1.95;;;;;;;;;;5144246;27;20035;-78
2023/06/26 11:50:22;;;;;;;5.85;2.10;;;;;;;;;;5155793;27;20050;-78
2023/06/26 11:52:55;;;;;;;12.75;1.92;;;;;;;;;;5135429;27;20035;-79
2023/06/26 11:55:22;;;;;;;9.45;2.15;;;;;;;;;;5143748;27;20130;-78
2023/06/26 11:57:49;;;;;;;8.35;2.10;;;;;;;;;;5139705;27;20070;-78
2023/06/26 12:00:16;;;;;;;12.95;2.22;;;;;;;;;;5129503;27;20056;-79
2023/06/26 12:02:44;;;;;;;11.38;2.42;;;;;;;;;;5141196;27;20038;-79
2023/06/26 12:05:10;;;;;;;7.38;1.98;;;;;;;;;;5142165;27;20039;-78
2023/06/26 12:07:37;;;;;;;9.38;2.53;;;;;;;;;;5123874;27;20442;-78
2023/06/26 12:10:04;;;;;;;12.82;2.47;;;;;;;;;;5138789;27;20043;-79
2023/06/26 12:12:31;;;;;;;10.93;2.20;;;;;;;;;;5117806;27;20047;-79
2023/06/26 12:14:58;;;;;;;8.90;2.00;;;;;;;;;;5137001;27;20042;-79
2023/06/26 12:17:25;;;;;;;9.05;1.92;;;;;;;;;;5119542;27;20089;-79
2023/06/26 12:19:51;;;;;;;9.13;2.35;;;;;;;;;;5133655;27;20277;-79
2023/06/26 12:22:18;;;;;;;8.45;2.20;;;;;;;;;;5114968;27;20127;-78
2023/06/26 12:24:45;;;;;;;8.15;2.15;;;;;;;;;;5108504;27;20485;-79
2023/06/26 12:27:12;;;;;;;11.60;2.30;;;;;;;;;;5122651;27;20409;-79
2023/06/26 12:29:39;;;;;;;9.43;2.70;;;;;;;;;;5149990;27;20059;-79
2023/06/26 12:32:09;;;;;;;11.50;2.55;;;;;;;;;;5144670;27;20047;-79
2023/06/26 12:34:37;;;;;;;11.55;2.60;;;;;;;;;;5135424;27;20050;-79
2023/06/26 12:37:08;;;;;;;6.88;1.90;;;;;;;;;;5146724;27;20038;-80
2023/06/26 12:39:53;;;;;;;7.57;1.67;;;;;;;;;;5125116;27;20039;-76
2023/06/26 12:42:20;;;;;;;5.63;1.90;;;;;;;;;;5148476;27;20058;-81
2023/06/26 12:44:46;;;;;;;8.68;2.15;;;;;;;;;;5128663;27;20050;-83
2023/06/26 12:47:14;;;;;;;8.02;1.80;;;;;;;;;;5151742;27;20035;-80
2023/06/26 12:49:44;;;;;;;8.90;2.40;;;;;;;;;;5142415;27;20038;-75
2023/06/26 12:52:15;;;;;;;7.82;2.13;;;;;;;;;;5138980;27;20105;-75
2023/06/26 12:54:43;;;;;;;8.07;2.30;;;;;;;;;;5140325;27;20238;-75
2023/06/26 12:57:09;;;;;;;7.95;1.95;;;;;;;;;;5120532;27;20118;-75
2023/06/26 12:59:36;;;;;;;7.45;2.42;;;;;;;;;;5115549;27;20462;-76
2023/06/26 13:02:03;;;;;;;8.32;1.80;;;;;;;;;;5122719;27;20043;-75
2023/06/26 13:04:29;;;;;;;8.60;2.08;;;;;;;;;;5124060;27;20111;-76
2023/06/26 13:06:56;;;;;;;7.35;1.75;;;;;;;;;;5105634;27;20042;-75
2023/06/26 13:09:23;;;;;;;8.15;2.17;;;;;;;;;;5126203;27;20367;-77
2023/06/26 13:11:49;;;;;;;7.00;2.15;;;;;;;;;;5144999;27;20081;-77
2023/06/26 13:14:16;;;;;;;10.55;2.45;;;;;;;;;;5129646;27;20047;-77
2023/06/26 13:16:42;;;;;;;6.55;2.17;;;;;;;;;;5148746;27;20137;-77
2023/06/26 13:19:08;;;;;;;7.70;1.50;;;;;;;;;;5147915;27;20501;-77
2023/06/26 13:21:35;;;;;;;11.18;1.55;;;;;;;;;;5128376;27;20112;-77
2023/06/26 13:24:01;;;;;;;8.93;1.90;;;;;;;;;;5134475;27;20072;-78
2023/06/26 13:26:28;;;;;;;4.18;1.45;;;;;;;;;;5124289;27;20501;-78
2023/06/26 13:28:55;;;;;;;10.00;2.38;;;;;;;;;;5143569;27;20119;-78
2023/06/26 13:31:21;;;;;;;8.43;1.80;;;;;;;;;;5105038;27;20557;-78
2023/06/26 13:33:54;;;;;;;9.90;1.90;;;;;;;;;;5117125;27;20053;-78
2023/06/26 13:36:21;;;;;;;;;;;;;;;;;;5135497;27;20039;-78
2023/06/26 13:38:50;;;;;;;7.22;1.63;;;;;;;;;;5109779;27;19987;-78
2023/06/26 13:41:16;;;;;;;7.07;1.70;;;;;;;;;;5133372;27;20051;-78
2023/06/26 13:43:42;;;;;;;7.93;1.50;;;;;;;;;;5123081;27;20070;-78
2023/06/26 13:46:08;;;;;;;7.53;1.73;;;;;;;;;;5122609;27;20040;-78
2023/06/26 13:48:34;;;;;;;11.82;1.92;;;;;;;;;;5122121;27;20050;-74
2023/06/26 13:51:01;;;;;;;6.28;1.80;;;;;;;;;;5117913;27;20047;-78
2023/06/26 13:53:27;;;;;;;6.05;1.50;;;;;;;;;;5113594;28;20054;-78
2023/06/26 13:55:53;;;;;;;4.20;1.60;;;;;;;;;;5134833;27;20042;-79
2023/06/26 13:58:22;;;;;;;9.75;1.67;;;;;;;;;;5119702;27;20035;-78
2023/06/26 14:00:48;;;;;;;6.88;1.80;;;;;;;;;;5153591;27;20054;-78
2023/06/26 14:03:15;;;;;;;10.85;2.45;;;;;;;;;;5134861;27;20043;-78
2023/06/26 14:05:41;;;;;;;10.35;2.30;;;;;;;;;;5126780;27;20152;-78
2023/06/26 14:08:08;;;;;;;6.20;1.50;;;;;;;;;;5123578;27;20362;-78
2023/06/26 14:10:36;;;;;;;12.23;2.03;;;;;;;;;;5134070;27;20485;-78
2023/06/26 14:13:03;;;;;;;9.18;1.75;;;;;;;;;;5123604;27;20039;-78
2023/06/26 14:15:29;;;;;;;6.60;1.70;;;;;;;;;;5127318;27;20520;-78
2023/06/26 14:17:55;;;;;;;14.57;1.60;;;;;;;;;;5139013;27;20495;-79
2023/06/26 14:20:22;;;;;;;6.88;1.65;;;;;;;;;;5115946;27;20103;-79
2023/06/26 14:22:49;;;;;;;8.60;1.98;;;;;;;;;;5153120;27;20133;-79
2023/06/26 14:25:15;;;;;;;9.68;2.58;;;;;;;;;;5129370;27;20047;-79
2023/06/26 14:27:42;;;;;;;8.10;1.98;;;;;;;;;;5131855;27;20501;-79
2023/06/26 14:30:08;;;;;;;11.18;2.13;;;;;;;;;;5107932;27;20442;-79
2023/06/26 14:32:35;;;;;;;6.43;1.48;;;;;;;;;;5141728;27;20512;-79